Flight Track Log - Related Links

Times and Time Zones

All times are in EDT time to prevent confusion due to time zone crossing. See the DAL3688 flight status page for this flight to view local times or setup timezone preferences in your user account.

Time Position Orientation Groundspeed Altitude Reporting Facility
EDT Latitude Longitude Course Direction KTS MPH feet Rate Location/Type
Thu 01:01:35 PM 40.1306 -76.7575 247° West 186 214 3,700  Level New York Center
Thu 01:02:36 PM 40.1136 -76.8400 255° West 221 254 6,100 2,441 Climbing New York Center
Thu 01:03:00 PM 40.2562 -77.1762 242° Southwest  Level FlightAware Approximate
Thu 01:03:33 PM 40.1031 -76.9233 261° West 250 288 8,500  Level New York Center
Thu 01:04:00 PM 40.2122 -77.2841 241° Southwest  Level FlightAware Approximate
Thu 01:04:34 PM 40.0917 -77.0256 262° West 267 307 11,000  Level New York Center
Thu 01:05:00 PM 40.1675 -77.3914 241° Southwest  Level FlightAware Approximate
Thu 01:05:35 PM 40.0806 -77.1142 261° West 281 323 12,600  Level New York Center
Thu 01:06:00 PM 40.1273 -77.5016 247° West  Level FlightAware Approximate
Thu 01:06:35 PM 40.0636 -77.2344 260° West 292 336 14,400  Level New York Center
Thu 01:08:38 PM 40.0372 -77.4700 262° West 320 368 16,400 1,082 Climbing Cleveland Center
Thu 01:09:38 PM 40.0175 -77.5983 259° West 344 396 17,700 1,000 Climbing Cleveland Center
Thu 01:10:38 PM 40.0022 -77.7292 261° West 355 409 18,400 850 Climbing Cleveland Center
Thu 01:11:38 PM 39.9847 -77.8625 260° West 366 421 19,400 800 Climbing Cleveland Center
Thu 01:12:38 PM 39.9775 -78.0011 266° West 380 437 20,000 750 Climbing Cleveland Center
Thu 01:13:38 PM 39.9806 -78.1447 272° West 386 444 20,900 1,000 Climbing Cleveland Center
Thu 01:14:38 PM 39.9797 -78.2992 270° West 386 444 22,000 950 Climbing Cleveland Center
Thu 01:15:38 PM 39.9822 -78.4372 271° West 386 444 22,800 750 Climbing Cleveland Center
Thu 01:16:38 PM 39.9867 -78.5672 273° West 386 444 23,500 700 Climbing Cleveland Center
Thu 01:17:38 PM 39.9892 -78.7106 271° West 391 450 24,200 700 Climbing Cleveland Center
Thu 01:18:38 PM 39.9936 -78.8542 272° West 396 456 24,900 750 Climbing Cleveland Center
Thu 01:19:38 PM 40.0000 -79.0111 273° West 401 461 25,700 550 Climbing Cleveland Center
Thu 01:20:38 PM 40.0039 -79.1547 272° West 401 461 26,000 150 Climbing Cleveland Center
Thu 01:21:38 PM 40.0036 -79.3039 270° West 401 461 26,000  Level Cleveland Center
Thu 01:22:38 PM 40.0158 -79.4581 276° West 412 474 26,000  Level Cleveland Center
Thu 01:23:38 PM 40.0878 -79.5844 307° West 406 467 26,000  Level Cleveland Center
Thu 01:24:38 PM 40.1597 -79.7164 306° West 430 495 26,000  Level Cleveland Center
Thu 01:25:38 PM 40.2294 -79.8517 304° West 449 517 26,000  Level Cleveland Center
Thu 01:26:38 PM 40.2992 -79.9869 304° West 454 522 26,000  Level Cleveland Center
Thu 01:27:38 PM 40.3558 -80.1117 301° West 454 522 26,000  Level Cleveland Center
Thu 01:28:38 PM 40.4272 -80.2531 304° West 454 522 26,000  Level Cleveland Center
Thu 01:29:38 PM 40.5006 -80.3839 306° West 454 522 26,000  Level Cleveland Center
Thu 01:30:38 PM 40.5694 -80.5231 303° West 454 522 26,000  Level Cleveland Center
Thu 01:31:38 PM 40.6444 -80.6789 302° West 460 529 26,000  Level Cleveland Center
Thu 01:32:38 PM 40.7069 -80.7994 304° West 460 529 26,000  Level Cleveland Center
Thu 01:33:38 PM 40.7711 -80.9342 302° West 455 524 26,000  Level Cleveland Center
Thu 01:34:38 PM 40.8417 -81.0825 302° West 445 512 26,000  Level Cleveland Center
Thu 01:35:38 PM 40.8994 -81.2011 303° West 440 506 26,000  Level Cleveland Center
Thu 01:36:38 PM 40.9672 -81.3419 303° West 440 506 26,000  Level Cleveland Center
Thu 01:37:38 PM 41.0331 -81.4778 303° West 440 506 26,000  Level Cleveland Center
Thu 01:38:38 PM 41.0986 -81.6192 302° West 440 506 26,000  Level Cleveland Center
Thu 01:39:38 PM 41.1700 -81.7581 304° West 445 512 26,000  Level Cleveland Center
Thu 01:40:38 PM 41.2375 -81.8975 303° West 450 518 26,000 -298 Level Cleveland Center
Thu 01:41:39 PM 41.3044 -82.0425 302° West 455 524 25,400 -7,000 Descending Cleveland Center
Thu 01:42:38 PM 41.3794 -82.1964 303° West 455 524 12,000 -2,471 Descending Cleveland Center
Thu 01:43:38 PM 41.4444 -82.3089 308° West 444 511 20,500 3,000 Climbing Cleveland Center
Thu 01:44:38 PM 41.5136 -82.4244 309° West 416 479 18,000 -2,450 Descending Cleveland Center
Thu 01:45:38 PM 41.5825 -82.5403 309° West 404 465 15,600 -2,621 Descending Cleveland Center
Thu 01:46:21 PM 41.6353 -82.6281 309° West 381 438 13,500 -2,800 Descending Cleveland Center
Thu 01:46:38 PM 41.6556 -82.6592 311° West 388 447 12,800 -1,343 Descending Cleveland Center
Thu 01:47:28 PM 41.7081 -82.7528 307° West 359 413 12,000 -375 Descending Cleveland Center
Thu 01:48:30 PM 41.7811 -82.8497 315° West 379 436 12,100  Climbing Cleveland Center
Thu 01:49:31 PM 41.8628 -82.9447 319° Northwest 385 443 12,000  Descending Cleveland Center
Thu 01:50:32 PM 41.9442 -83.0397 319° Northwest 382 440 12,100  Climbing Cleveland Center
Thu 01:51:32 PM 42.0211 -83.1350 317° Northwest 377 434 12,000 -47 Descending Cleveland Center
Thu 01:52:39 PM 42.0903 -83.2189 318° Northwest 254 292 12,000 -333 Level Cleveland Center
Thu 01:53:38 PM 42.1503 -83.2383 346° North 233 268 11,300 -1,160 Descending Cleveland Center
Thu 01:54:38 PM 42.2219 -83.1992 22° Northeast 244 281 9,700 -1,550 Descending Cleveland Center
Thu 01:55:38 PM 42.2939 -83.1489 27° Northeast 262 302 8,200 -768 Descending Cleveland Center
Thu 01:56:43 PM 42.3722 -83.0958 27° Northeast 281 323 8,100 -95 Descending Cleveland Center
Thu 01:57:44 PM 42.4464 -83.0481 25° Northeast 290 334 8,000 -517 Descending Cleveland Center
Thu 01:58:39 PM 42.4933 -83.0836 331° Northwest 209 241 7,100 -769 Descending Cleveland Center
Thu 01:59:41 PM 42.4881 -83.1369 262° West 140 161 6,500 -578 Descending Cleveland Center
Thu 02:00:54 PM 42.4478 -83.1692 211° Southwest 140 161 5,800 -639 Descending Cleveland Center
Thu 02:01:43 PM 42.4203 -83.1850 203° Southwest 141 162 5,200 -735 Descending Cleveland Center

Login

Don't have an account? Register now (free) for customized features, flight alerts, and more!